sensor_id;sensor_type;location;lat;lon;timestamp;pressure;altitude;pressure_sealevel;temperature;humidity
64668;BME280;51077;42.716;23.344;2022-11-04T00:01:25;95485.13;;;17.16;43.38
64668;BME280;51077;42.716;23.344;2022-11-04T00:03:51;95485.25;;;17.10;43.89
64668;BME280;51077;42.716;23.344;2022-11-04T00:06:17;95483.97;;;17.03;44.06
64668;BME280;51077;42.716;23.344;2022-11-04T00:08:53;95483.22;;;17.03;43.97
64668;BME280;51077;42.716;23.344;2022-11-04T00:11:20;95487.81;;;17.00;43.96
64668;BME280;51077;42.716;23.344;2022-11-04T00:14:06;95490.59;;;17.00;44.20
64668;BME280;51077;42.716;23.344;2022-11-04T00:16:32;95498.34;;;16.94;44.32
64668;BME280;51077;42.716;23.344;2022-11-04T00:19:17;95496.50;;;16.97;44.22
64668;BME280;51077;42.716;23.344;2022-11-04T00:21:42;95486.91;;;16.98;44.21
64668;BME280;51077;42.716;23.344;2022-11-04T00:24:27;95486.91;;;16.98;44.26
64668;BME280;51077;42.716;23.344;2022-11-04T00:27:15;95491.69;;;16.97;44.07
64668;BME280;51077;42.716;23.344;2022-11-04T00:29:59;95495.97;;;16.98;44.15
64668;BME280;51077;42.716;23.344;2022-11-04T00:32:25;95484.88;;;16.98;44.19
64668;BME280;51077;42.716;23.344;2022-11-04T00:35:11;95485.00;;;16.93;44.14
64668;BME280;51077;42.716;23.344;2022-11-04T00:37:38;95487.06;;;16.92;44.25
64668;BME280;51077;42.716;23.344;2022-11-04T00:40:06;95481.84;;;16.89;44.45
64668;BME280;51077;42.716;23.344;2022-11-04T00:42:31;95469.13;;;16.86;44.28
64668;BME280;51077;42.716;23.344;2022-11-04T00:44:57;95476.47;;;16.83;44.36
64668;BME280;51077;42.716;23.344;2022-11-04T00:47:22;95472.03;;;16.80;44.48
64668;BME280;51077;42.716;23.344;2022-11-04T00:49:48;95473.16;;;16.77;44.48
64668;BME280;51077;42.716;23.344;2022-11-04T00:52:13;95467.41;;;16.75;44.57
64668;BME280;51077;42.716;23.344;2022-11-04T00:54:39;95468.47;;;16.72;44.74
64668;BME280;51077;42.716;23.344;2022-11-04T00:57:04;95457.94;;;16.70;44.55
64668;BME280;51077;42.716;23.344;2022-11-04T00:59:32;95464.03;;;16.69;44.57
64668;BME280;51077;42.716;23.344;2022-11-04T01:01:58;95453.28;;;16.65;44.78
64668;BME280;51077;42.716;23.344;2022-11-04T01:04:23;95459.19;;;16.62;44.69
64668;BME280;51077;42.716;23.344;2022-11-04T01:06:49;95471.75;;;16.63;45.00
64668;BME280;51077;42.716;23.344;2022-11-04T01:09:14;95466.97;;;16.63;44.74
64668;BME280;51077;42.716;23.344;2022-11-04T01:11:39;95457.72;;;16.61;44.82
64668;BME280;51077;42.716;23.344;2022-11-04T01:14:05;95450.47;;;16.57;44.94
64668;BME280;51077;42.716;23.344;2022-11-04T01:16:30;95450.09;;;16.53;44.92
64668;BME280;51077;42.716;23.344;2022-11-04T01:18:56;95448.44;;;16.50;45.08
64668;BME280;51077;42.716;23.344;2022-11-04T01:21:21;95445.28;;;16.46;45.27
64668;BME280;51077;42.716;23.344;2022-11-04T01:23:47;95440.25;;;16.45;45.16
64668;BME280;51077;42.716;23.344;2022-11-04T01:26:16;95428.78;;;16.41;45.23
64668;BME280;51077;42.716;23.344;2022-11-04T01:28:42;95438.59;;;16.42;45.29
64668;BME280;51077;42.716;23.344;2022-11-04T01:31:30;95436.19;;;16.38;45.08
64668;BME280;51077;42.716;23.344;2022-11-04T01:33:57;95444.66;;;16.32;45.47
64668;BME280;51077;42.716;23.344;2022-11-04T01:36:23;95445.19;;;16.31;45.28
64668;BME280;51077;42.716;23.344;2022-11-04T01:38:48;95439.25;;;16.27;45.54
64668;BME280;51077;42.716;23.344;2022-11-04T01:41:22;95438.31;;;16.24;45.63
64668;BME280;51077;42.716;23.344;2022-11-04T01:43:59;95440.16;;;16.22;45.41
64668;BME280;51077;42.716;23.344;2022-11-04T01:46:38;95435.69;;;16.19;45.55
64668;BME280;51077;42.716;23.344;2022-11-04T01:49:30;95440.69;;;16.20;45.75
64668;BME280;51077;42.716;23.344;2022-11-04T01:52:21;95434.22;;;16.18;45.95
64668;BME280;51077;42.716;23.344;2022-11-04T01:54:49;95428.50;;;16.16;45.88
64668;BME280;51077;42.716;23.344;2022-11-04T01:57:20;95424.59;;;16.11;45.80
64668;BME280;51077;42.716;23.344;2022-11-04T01:59:48;95426.22;;;16.06;45.93
64668;BME280;51077;42.716;23.344;2022-11-04T02:02:14;95433.78;;;16.06;46.14
64668;BME280;51077;42.716;23.344;2022-11-04T02:04:40;95429.69;;;15.99;46.07
64668;BME280;51077;42.716;23.344;2022-11-04T02:07:08;95423.41;;;15.99;46.20
64668;BME280;51077;42.716;23.344;2022-11-04T02:09:35;95418.22;;;15.95;46.14
64668;BME280;51077;42.716;23.344;2022-11-04T02:12:02;95421.88;;;15.90;46.30
64668;BME280;51077;42.716;23.344;2022-11-04T02:14:47;95415.59;;;15.90;46.35
64668;BME280;51077;42.716;23.344;2022-11-04T02:28:04;95419.00;;;15.75;46.53
64668;BME280;51077;42.716;23.344;2022-11-04T02:31:09;95410.84;;;15.69;46.54
64668;BME280;51077;42.716;23.344;2022-11-04T02:33:36;95408.41;;;15.66;46.52
64668;BME280;51077;42.716;23.344;2022-11-04T02:36:23;95404.91;;;15.65;46.68
64668;BME280;51077;42.716;23.344;2022-11-04T02:39:07;95409.56;;;15.70;46.42
64668;BME280;51077;42.716;23.344;2022-11-04T02:41:53;95404.91;;;15.65;46.70
64668;BME280;51077;42.716;23.344;2022-11-04T02:44:45;95413.72;;;15.64;46.77
64668;BME280;51077;42.716;23.344;2022-11-04T02:47:23;95400.03;;;15.58;47.18
64668;BME280;51077;42.716;23.344;2022-11-04T02:55:06;95404.41;;;15.53;47.30
64668;BME280;51077;42.716;23.344;2022-11-04T02:57:36;95405.13;;;15.46;47.38
64668;BME280;51077;42.716;23.344;2022-11-04T03:00:06;95413.94;;;15.45;47.51
64668;BME280;51077;42.716;23.344;2022-11-04T03:05:10;95406.84;;;15.36;47.93
64668;BME280;51077;42.716;23.344;2022-11-04T03:07:40;95406.66;;;15.34;48.09
64668;BME280;51077;42.716;23.344;2022-11-04T03:10:23;95398.38;;;15.34;47.89
64668;BME280;51077;42.716;23.344;2022-11-04T03:13:08;95402.94;;;15.31;48.13
64668;BME280;51077;42.716;23.344;2022-11-04T03:15:36;95408.47;;;15.31;47.96
64668;BME280;51077;42.716;23.344;2022-11-04T03:18:56;95403.81;;;15.26;48.16
64668;BME280;51077;42.716;23.344;2022-11-04T03:21:03;95397.56;;;15.26;48.34
64668;BME280;51077;42.716;23.344;2022-11-04T03:23:31;95401.00;;;15.19;48.59
64668;BME280;51077;42.716;23.344;2022-11-04T03:26:05;95400.81;;;15.17;48.57
64668;BME280;51077;42.716;23.344;2022-11-04T03:28:40;95406.47;;;15.11;48.86
64668;BME280;51077;42.716;23.344;2022-11-04T03:31:16;95408.28;;;15.08;49.03
64668;BME280;51077;42.716;23.344;2022-11-04T03:33:51;95402.75;;;15.08;48.79
64668;BME280;51077;42.716;23.344;2022-11-04T03:36:19;95404.22;;;15.09;48.75
64668;BME280;51077;42.716;23.344;2022-11-04T03:38:46;95403.16;;;15.13;48.78
64668;BME280;51077;42.716;23.344;2022-11-04T03:41:22;95410.44;;;15.02;48.98
64668;BME280;51077;42.716;23.344;2022-11-04T03:43:48;95401.94;;;15.00;48.85
64668;BME280;51077;42.716;23.344;2022-11-04T03:46:14;95405.97;;;14.99;48.93
64668;BME280;51077;42.716;23.344;2022-11-04T03:48:40;95407.03;;;14.96;49.08
64668;BME280;51077;42.716;23.344;2022-11-04T03:51:08;95402.25;;;14.97;49.00
64668;BME280;51077;42.716;23.344;2022-11-04T03:53:33;95402.63;;;14.93;49.18
64668;BME280;51077;42.716;23.344;2022-11-04T03:56:19;95406.13;;;14.94;49.18
64668;BME280;51077;42.716;23.344;2022-11-04T04:01:55;95396.13;;;14.91;49.38
64668;BME280;51077;42.716;23.344;2022-11-04T04:04:40;95392.63;;;14.90;49.28
64668;BME280;51077;42.716;23.344;2022-11-04T04:07:15;95397.41;;;14.90;49.23
64668;BME280;51077;42.716;23.344;2022-11-04T04:09:50;95393.16;;;14.89;49.33
64668;BME280;51077;42.716;23.344;2022-11-04T04:15:21;95394.97;;;14.86;49.45
64668;BME280;51077;42.716;23.344;2022-11-04T04:17:55;95388.16;;;14.87;49.24
64668;BME280;51077;42.716;23.344;2022-11-04T04:20:26;95387.75;;;14.83;49.58
64668;BME280;51077;42.716;23.344;2022-11-04T04:23:02;95394.16;;;14.78;49.61
64668;BME280;51077;42.716;23.344;2022-11-04T04:25:48;95396.38;;;14.79;49.70
64668;BME280;51077;42.716;23.344;2022-11-04T04:28:33;95392.44;;;14.75;49.86
64668;BME280;51077;42.716;23.344;2022-11-04T04:31:02;95392.25;;;14.73;49.59
64668;BME280;51077;42.716;23.344;2022-11-04T04:33:28;95391.63;;;14.67;49.79
64668;BME280;51077;42.716;23.344;2022-11-04T04:35:55;95386.66;;;14.65;50.06
64668;BME280;51077;42.716;23.344;2022-11-04T04:38:26;95391.97;;;14.63;50.19
64668;BME280;51077;42.716;23.344;2022-11-04T04:41:30;95389.81;;;14.69;49.96
64668;BME280;51077;42.716;23.344;2022-11-04T04:44:26;95384.84;;;14.68;50.19
64668;BME280;51077;42.716;23.344;2022-11-04T04:47:14;95389.22;;;14.63;50.29
64668;BME280;51077;42.716;23.344;2022-11-04T04:50:03;95388.81;;;14.59;50.33
64668;BME280;51077;42.716;23.344;2022-11-04T04:52:29;95393.78;;;14.61;50.36
64668;BME280;51077;42.716;23.344;2022-11-04T04:54:55;95393.69;;;14.53;50.40
64668;BME280;51077;42.716;23.344;2022-11-04T04:57:21;95389.66;;;14.54;50.41
64668;BME280;51077;42.716;23.344;2022-11-04T04:59:46;95395.53;;;14.50;50.50
64668;BME280;51077;42.716;23.344;2022-11-04T05:02:12;95391.75;;;14.48;50.65
64668;BME280;51077;42.716;23.344;2022-11-04T05:04:37;95396.03;;;14.49;50.50
64668;BME280;51077;42.716;23.344;2022-11-04T05:07:03;95394.34;;;14.46;50.75
64668;BME280;51077;42.716;23.344;2022-11-04T05:09:28;95399.09;;;14.45;50.69
64668;BME280;51077;42.716;23.344;2022-11-04T05:11:54;95394.09;;;14.44;50.70
64668;BME280;51077;42.716;23.344;2022-11-04T05:14:19;95403.34;;;14.46;50.68
64668;BME280;51077;42.716;23.344;2022-11-04T05:16:45;95400.59;;;14.46;50.70
64668;BME280;51077;42.716;23.344;2022-11-04T05:19:10;95413.34;;;14.49;50.61
64668;BME280;51077;42.716;23.344;2022-11-04T05:21:36;95408.03;;;14.51;50.69
64668;BME280;51077;42.716;23.344;2022-11-04T05:24:01;95402.94;;;14.55;50.46
64668;BME280;51077;42.716;23.344;2022-11-04T05:26:27;95406.31;;;14.62;50.37
64668;BME280;51077;42.716;23.344;2022-11-04T05:28:52;95411.78;;;14.75;50.11
64668;BME280;51077;42.716;23.344;2022-11-04T05:31:18;95408.16;;;14.80;50.15
64668;BME280;51077;42.716;23.344;2022-11-04T05:33:43;95412.72;;;14.91;49.77
64668;BME280;51077;42.716;23.344;2022-11-04T05:36:11;95420.00;;;15.01;49.60
64668;BME280;51077;42.716;23.344;2022-11-04T05:38:37;95422.50;;;15.13;49.29
64668;BME280;51077;42.716;23.344;2022-11-04T05:41:04;95416.72;;;15.24;49.08
64668;BME280;51077;42.716;23.344;2022-11-04T05:43:30;95429.38;;;15.40;48.75
64668;BME280;51077;42.716;23.344;2022-11-04T05:45:57;95431.22;;;15.58;48.44
64668;BME280;51077;42.716;23.344;2022-11-04T05:48:23;95431.75;;;15.78;48.04
64668;BME280;51077;42.716;23.344;2022-11-04T05:50:49;95428.88;;;15.91;47.73
64668;BME280;51077;42.716;23.344;2022-11-04T05:53:14;95442.88;;;16.14;47.45
64668;BME280;51077;42.716;23.344;2022-11-04T05:55:40;95444.44;;;16.30;47.04
64668;BME280;51077;42.716;23.344;2022-11-04T05:58:05;95440.13;;;16.50;46.49
64668;BME280;51077;42.716;23.344;2022-11-04T06:00:30;95434.06;;;16.67;46.28
64668;BME280;51077;42.716;23.344;2022-11-04T06:02:56;95440.28;;;16.81;45.86
64668;BME280;51077;42.716;23.344;2022-11-04T06:05:22;95443.06;;;16.96;45.70
64668;BME280;51077;42.716;23.344;2022-11-04T06:07:47;95441.06;;;17.04;45.85
64668;BME280;51077;42.716;23.344;2022-11-04T06:10:13;95439.28;;;17.30;45.28
64668;BME280;51077;42.716;23.344;2022-11-04T06:12:38;95441.31;;;17.52;44.68
64668;BME280;51077;42.716;23.344;2022-11-04T06:15:04;95441.16;;;17.73;44.44
64668;BME280;51077;42.716;23.344;2022-11-04T06:17:30;95430.06;;;17.81;44.29
64668;BME280;51077;42.716;23.344;2022-11-04T06:19:55;95435.06;;;17.90;44.19
64668;BME280;51077;42.716;23.344;2022-11-04T06:22:21;95438.00;;;18.00;43.93
64668;BME280;51077;42.716;23.344;2022-11-04T06:24:46;95435.97;;;18.16;43.83
64668;BME280;51077;42.716;23.344;2022-11-04T06:27:13;95443.13;;;18.34;43.59
64668;BME280;51077;42.716;23.344;2022-11-04T06:29:38;95436.03;;;18.56;43.10
64668;BME280;51077;42.716;23.344;2022-11-04T06:32:10;95442.63;;;18.76;42.81
64668;BME280;51077;42.716;23.344;2022-11-04T06:34:37;95442.19;;;18.95;42.48
64668;BME280;51077;42.716;23.344;2022-11-04T06:37:02;95443.53;;;19.19;42.24
64668;BME280;51077;42.716;23.344;2022-11-04T06:39:28;95439.19;;;19.33;41.82
64668;BME280;51077;42.716;23.344;2022-11-04T06:41:54;95446.66;;;19.55;41.39
64668;BME280;51077;42.716;23.344;2022-11-04T06:44:20;95451.56;;;19.72;41.31
64668;BME280;51077;42.716;23.344;2022-11-04T06:46:46;95445.47;;;19.91;40.99
64668;BME280;51077;42.716;23.344;2022-11-04T06:49:14;95450.09;;;20.14;40.48
64668;BME280;51077;42.716;23.344;2022-11-04T06:51:40;95451.50;;;20.40;40.33
64668;BME280;51077;42.716;23.344;2022-11-04T06:54:05;95448.34;;;20.61;39.84
64668;BME280;51077;42.716;23.344;2022-11-04T06:56:31;95448.66;;;20.82;39.78
64668;BME280;51077;42.716;23.344;2022-11-04T06:58:57;95441.53;;;20.98;39.27
64668;BME280;51077;42.716;23.344;2022-11-04T07:01:25;95438.13;;;21.17;39.03
64668;BME280;51077;42.716;23.344;2022-11-04T07:03:52;95439.44;;;21.33;38.60
64668;BME280;51077;42.716;23.344;2022-11-04T07:06:18;95435.09;;;21.50;38.47
64668;BME280;51077;42.716;23.344;2022-11-04T07:08:45;95437.97;;;21.69;38.54
64668;BME280;51077;42.716;23.344;2022-11-04T07:11:11;95434.19;;;21.94;37.94
64668;BME280;51077;42.716;23.344;2022-11-04T07:13:36;95437.22;;;22.15;37.67
64668;BME280;51077;42.716;23.344;2022-11-04T07:16:07;95429.00;;;22.46;37.14
64668;BME280;51077;42.716;23.344;2022-11-04T07:18:33;95423.56;;;22.68;36.56
64668;BME280;51077;42.716;23.344;2022-11-04T07:20:59;95415.47;;;22.91;36.26
64668;BME280;51077;42.716;23.344;2022-11-04T07:23:24;95419.84;;;23.14;36.08
64668;BME280;51077;42.716;23.344;2022-11-04T07:25:49;95413.28;;;23.40;35.50
64668;BME280;51077;42.716;23.344;2022-11-04T07:28:15;95414.69;;;23.61;35.35
64668;BME280;51077;42.716;23.344;2022-11-04T07:30:41;95403.34;;;23.90;34.96
64668;BME280;51077;42.716;23.344;2022-11-04T07:33:07;95411.97;;;24.25;34.62
64668;BME280;51077;42.716;23.344;2022-11-04T07:35:32;95415.47;;;24.56;34.11
64668;BME280;51077;42.716;23.344;2022-11-04T07:37:58;95396.03;;;24.82;33.74
64668;BME280;51077;42.716;23.344;2022-11-04T07:40:23;95401.47;;;25.01;33.04
64668;BME280;51077;42.716;23.344;2022-11-04T07:42:49;95404.59;;;25.17;32.78
64668;BME280;51077;42.716;23.344;2022-11-04T07:45:14;95384.91;;;25.29;32.56
64668;BME280;51077;42.716;23.344;2022-11-04T07:47:40;95399.13;;;25.54;32.37
64668;BME280;51077;42.716;23.344;2022-11-04T07:50:06;95395.09;;;25.81;32.02
64668;BME280;51077;42.716;23.344;2022-11-04T07:52:31;95392.38;;;26.06;31.32
64668;BME280;51077;42.716;23.344;2022-11-04T07:54:57;95391.97;;;26.36;31.09
64668;BME280;51077;42.716;23.344;2022-11-04T07:57:22;95392.34;;;26.67;30.52
64668;BME280;51077;42.716;23.344;2022-11-04T07:59:47;95386.84;;;26.95;30.02
64668;BME280;51077;42.716;23.344;2022-11-04T08:02:13;95379.44;;;27.13;29.61
64668;BME280;51077;42.716;23.344;2022-11-04T08:04:38;95381.97;;;27.35;29.32
64668;BME280;51077;42.716;23.344;2022-11-04T08:07:07;95388.78;;;27.57;29.26
64668;BME280;51077;42.716;23.344;2022-11-04T08:09:33;95366.25;;;27.57;28.97
64668;BME280;51077;42.716;23.344;2022-11-04T08:12:01;95382.03;;;27.76;28.63
64668;BME280;51077;42.716;23.344;2022-11-04T08:14:26;95374.31;;;27.90;28.59
64668;BME280;51077;42.716;23.344;2022-11-04T08:16:51;95360.91;;;28.18;28.16
64668;BME280;51077;42.716;23.344;2022-11-04T08:19:17;95365.38;;;28.37;28.07
64668;BME280;51077;42.716;23.344;2022-11-04T08:21:42;95362.00;;;28.54;27.53
64668;BME280;51077;42.716;23.344;2022-11-04T08:24:07;95359.31;;;28.72;27.17
64668;BME280;51077;42.716;23.344;2022-11-04T08:26:33;95365.63;;;29.00;26.85
64668;BME280;51077;42.716;23.344;2022-11-04T08:28:58;95359.06;;;29.12;26.79
64668;BME280;51077;42.716;23.344;2022-11-04T08:31:27;95359.28;;;29.32;26.20
64668;BME280;51077;42.716;23.344;2022-11-04T08:33:54;95341.03;;;29.50;26.00
64668;BME280;51077;42.716;23.344;2022-11-04T08:36:22;95350.72;;;29.61;26.23
64668;BME280;51077;42.716;23.344;2022-11-04T08:38:48;95337.16;;;29.91;25.68
64668;BME280;51077;42.716;23.344;2022-11-04T08:41:16;95343.50;;;30.08;25.69
64668;BME280;51077;42.716;23.344;2022-11-04T08:43:44;95335.72;;;30.24;25.24
64668;BME280;51077;42.716;23.344;2022-11-04T08:46:11;95336.72;;;30.31;24.78
64668;BME280;51077;42.716;23.344;2022-11-04T08:48:37;95330.72;;;30.40;24.92
64668;BME280;51077;42.716;23.344;2022-11-04T08:51:05;95327.09;;;30.55;24.65
64668;BME280;51077;42.716;23.344;2022-11-04T08:53:31;95328.16;;;30.82;24.39
64668;BME280;51077;42.716;23.344;2022-11-04T08:55:56;95329.41;;;31.15;23.98
64668;BME280;51077;42.716;23.344;2022-11-04T08:58:22;95336.03;;;31.39;24.03
64668;BME280;51077;42.716;23.344;2022-11-04T09:00:49;95326.06;;;31.58;23.80
64668;BME280;51077;42.716;23.344;2022-11-04T09:03:14;95316.41;;;31.65;23.24
64668;BME280;51077;42.716;23.344;2022-11-04T09:05:41;95317.28;;;31.70;23.03
64668;BME280;51077;42.716;23.344;2022-11-04T09:08:11;95318.84;;;31.95;23.17
64668;BME280;51077;42.716;23.344;2022-11-04T09:10:43;95312.56;;;32.18;22.78
64668;BME280;51077;42.716;23.344;2022-11-04T09:13:10;95313.38;;;32.43;22.49
64668;BME280;51077;42.716;23.344;2022-11-04T09:15:36;95311.47;;;32.49;22.48
64668;BME280;51077;42.716;23.344;2022-11-04T09:18:02;95303.53;;;32.68;22.31
64668;BME280;51077;42.716;23.344;2022-11-04T09:20:28;95301.72;;;33.00;22.35
64668;BME280;51077;42.716;23.344;2022-11-04T09:22:55;95296.25;;;33.09;22.01
64668;BME280;51077;42.716;23.344;2022-11-04T09:25:20;95291.97;;;33.32;21.69
64668;BME280;51077;42.716;23.344;2022-11-04T09:27:46;95289.16;;;33.34;21.60
64668;BME280;51077;42.716;23.344;2022-11-04T09:30:11;95289.34;;;33.40;21.47
64668;BME280;51077;42.716;23.344;2022-11-04T09:32:37;95274.91;;;33.58;21.43
64668;BME280;51077;42.716;23.344;2022-11-04T09:35:02;95269.97;;;33.58;21.21
64668;BME280;51077;42.716;23.344;2022-11-04T09:37:29;95275.03;;;33.38;21.11
64668;BME280;51077;42.716;23.344;2022-11-04T09:39:54;95271.00;;;33.45;21.20
64668;BME280;51077;42.716;23.344;2022-11-04T09:42:39;95264.91;;;33.31;21.27
64668;BME280;51077;42.716;23.344;2022-11-04T09:45:13;95252.06;;;33.30;21.38
64668;BME280;51077;42.716;23.344;2022-11-04T09:47:45;95243.03;;;33.37;21.46
64668;BME280;51077;42.716;23.344;2022-11-04T09:50:19;95240.78;;;33.34;20.98
64668;BME280;51077;42.716;23.344;2022-11-04T09:52:50;95235.63;;;33.52;20.74
64668;BME280;51077;42.716;23.344;2022-11-04T09:55:54;95230.13;;;33.86;20.72
64668;BME280;51077;42.716;23.344;2022-11-04T09:58:21;95228.88;;;33.93;20.57
64668;BME280;51077;42.716;23.344;2022-11-04T10:00:57;95234.13;;;34.03;20.45
64668;BME280;51077;42.716;23.344;2022-11-04T10:08:58;95212.25;;;34.42;20.21
64668;BME280;51077;42.716;23.344;2022-11-04T10:21:57;95199.75;;;34.25;19.65
64668;BME280;51077;42.716;23.344;2022-11-04T10:24:49;95188.75;;;34.41;19.50
64668;BME280;51077;42.716;23.344;2022-11-04T10:27:23;95172.03;;;34.58;19.57
64668;BME280;51077;42.716;23.344;2022-11-04T10:29:59;95171.81;;;34.47;19.40
64668;BME280;51077;42.716;23.344;2022-11-04T10:33:00;95160.31;;;34.13;19.57
64668;BME280;51077;42.716;23.344;2022-11-04T10:35:34;95153.38;;;34.20;19.67
64668;BME280;51077;42.716;23.344;2022-11-04T10:38:21;95145.13;;;34.35;19.69
64668;BME280;51077;42.716;23.344;2022-11-04T10:40:51;95146.34;;;34.56;19.39
64668;BME280;51077;42.716;23.344;2022-11-04T10:48:20;95117.09;;;34.89;19.30
64668;BME280;51077;42.716;23.344;2022-11-04T10:50:55;95112.19;;;34.94;19.09
64668;BME280;51077;42.716;23.344;2022-11-04T10:53:24;95102.31;;;34.97;19.01
64668;BME280;51077;42.716;23.344;2022-11-04T10:58:34;95104.94;;;35.23;18.68
64668;BME280;51077;42.716;23.344;2022-11-04T11:01:38;95080.97;;;35.40;18.61
64668;BME280;51077;42.716;23.344;2022-11-04T11:04:23;95074.03;;;35.11;18.75
64668;BME280;51077;42.716;23.344;2022-11-04T11:06:50;95071.50;;;34.91;18.78
64668;BME280;51077;42.716;23.344;2022-11-04T11:09:22;95074.25;;;34.87;18.88
64668;BME280;51077;42.716;23.344;2022-11-04T11:12:02;95066.28;;;34.80;19.04
64668;BME280;51077;42.716;23.344;2022-11-04T11:19:43;95053.28;;;34.70;18.61
64668;BME280;51077;42.716;23.344;2022-11-04T11:22:36;95051.28;;;34.77;18.45
64668;BME280;51077;42.716;23.344;2022-11-04T11:28:00;95039.16;;;34.76;18.29
64668;BME280;51077;42.716;23.344;2022-11-04T11:30:27;95031.44;;;34.83;18.71
64668;BME280;51077;42.716;23.344;2022-11-04T11:35:30;95016.03;;;34.60;18.26
64668;BME280;51077;42.716;23.344;2022-11-04T11:37:57;95007.41;;;34.22;18.47
64668;BME280;51077;42.716;23.344;2022-11-04T11:40:39;94995.28;;;33.87;18.83
64668;BME280;51077;42.716;23.344;2022-11-04T11:43:05;94997.56;;;33.63;19.03
64668;BME280;51077;42.716;23.344;2022-11-04T11:45:31;94990.81;;;33.48;19.31
64668;BME280;51077;42.716;23.344;2022-11-04T11:47:56;94990.31;;;33.27;19.38
64668;BME280;51077;42.716;23.344;2022-11-04T11:50:29;94990.63;;;33.12;19.49
64668;BME280;51077;42.716;23.344;2022-11-04T11:53:17;94990.19;;;32.67;19.64
64668;BME280;51077;42.716;23.344;2022-11-04T11:56:25;94984.88;;;32.29;20.06
64668;BME280;51077;42.716;23.344;2022-11-04T11:58:57;94979.84;;;32.02;20.57
64668;BME280;51077;42.716;23.344;2022-11-04T12:01:39;94979.81;;;31.78;21.10
64668;BME280;51077;42.716;23.344;2022-11-04T12:04:07;94981.22;;;31.77;20.57
64668;BME280;51077;42.716;23.344;2022-11-04T12:12:26;94977.28;;;31.40;21.45
64668;BME280;51077;42.716;23.344;2022-11-04T12:44:36;94947.84;;;27.17;27.01
64668;BME280;51077;42.716;23.344;2022-11-04T12:58:15;94933.69;;;27.01;26.99
64668;BME280;51077;42.716;23.344;2022-11-04T13:00:43;94938.19;;;26.92;26.69
64668;BME280;51077;42.716;23.344;2022-11-04T13:03:15;94934.34;;;26.86;26.70
64668;BME280;51077;42.716;23.344;2022-11-04T13:08:19;94927.09;;;26.67;27.26
64668;BME280;51077;42.716;23.344;2022-11-04T13:10:58;94919.72;;;26.60;27.35
64668;BME280;51077;42.716;23.344;2022-11-04T13:13:36;94924.84;;;26.36;27.31
64668;BME280;51077;42.716;23.344;2022-11-04T13:16:05;94926.97;;;26.21;27.53
64668;BME280;51077;42.716;23.344;2022-11-04T13:18:37;94933.50;;;25.98;28.22
64668;BME280;51077;42.716;23.344;2022-11-04T13:21:09;94931.78;;;25.66;28.74
64668;BME280;51077;42.716;23.344;2022-11-04T13:24:06;94939.47;;;25.51;28.93
64668;BME280;51077;42.716;23.344;2022-11-04T13:26:38;94932.75;;;25.31;29.17
64668;BME280;51077;42.716;23.344;2022-11-04T13:29:14;94934.06;;;25.16;29.47
64668;BME280;51077;42.716;23.344;2022-11-04T13:31:49;94929.63;;;24.99;29.75
64668;BME280;51077;42.716;23.344;2022-11-04T13:34:50;94929.25;;;24.93;29.74
64668;BME280;51077;42.716;23.344;2022-11-04T13:37:26;94931.47;;;24.95;29.96
64668;BME280;51077;42.716;23.344;2022-11-04T13:40:00;94926.59;;;24.95;29.83
64668;BME280;51077;42.716;23.344;2022-11-04T13:45:17;94921.25;;;24.88;29.82
64668;BME280;51077;42.716;23.344;2022-11-04T13:47:53;94923.38;;;24.75;30.47
64668;BME280;51077;42.716;23.344;2022-11-04T13:50:38;94921.47;;;24.54;30.58
64668;BME280;51077;42.716;23.344;2022-11-04T13:53:06;94928.38;;;24.40;30.62
64668;BME280;51077;42.716;23.344;2022-11-04T13:55:33;94917.03;;;24.26;31.23
64668;BME280;51077;42.716;23.344;2022-11-04T13:58:02;94921.16;;;24.25;31.14
64668;BME280;51077;42.716;23.344;2022-11-04T14:00:30;94918.75;;;24.19;31.32
64668;BME280;51077;42.716;23.344;2022-11-04T14:02:58;94914.38;;;24.16;31.53
64668;BME280;51077;42.716;23.344;2022-11-04T14:18:44;94908.88;;;24.06;31.90
64668;BME280;51077;42.716;23.344;2022-11-04T14:21:18;94909.00;;;24.08;31.82
64668;BME280;51077;42.716;23.344;2022-11-04T14:23:45;94913.16;;;24.07;31.89
64668;BME280;51077;42.716;23.344;2022-11-04T14:26:13;94918.53;;;24.03;31.66
64668;BME280;51077;42.716;23.344;2022-11-04T14:28:45;94916.81;;;23.98;31.98
64668;BME280;51077;42.716;23.344;2022-11-04T14:31:13;94915.00;;;23.91;32.26
64668;BME280;51077;42.716;23.344;2022-11-04T14:33:58;94916.47;;;23.80;32.38
64668;BME280;51077;42.716;23.344;2022-11-04T14:39:18;94915.25;;;23.60;32.87
64668;BME280;51077;42.716;23.344;2022-11-04T14:41:52;94914.34;;;23.46;33.48
64668;BME280;51077;42.716;23.344;2022-11-04T14:47:12;94916.25;;;23.20;33.47
64668;BME280;51077;42.716;23.344;2022-11-04T14:52:21;94905.22;;;22.89;33.99
64668;BME280;51077;42.716;23.344;2022-11-04T14:54:54;94904.44;;;22.76;34.11
64668;BME280;51077;42.716;23.344;2022-11-04T14:57:21;94896.97;;;22.57;34.54
64668;BME280;51077;42.716;23.344;2022-11-04T14:59:47;94895.44;;;22.45;34.38
64668;BME280;51077;42.716;23.344;2022-11-04T15:04:52;94881.94;;;22.20;34.95
64668;BME280;51077;42.716;23.344;2022-11-04T15:07:34;94899.81;;;22.05;35.21
64668;BME280;51077;42.716;23.344;2022-11-04T15:10:02;94898.28;;;21.92;35.17
64668;BME280;51077;42.716;23.344;2022-11-04T15:12:29;94898.81;;;21.79;35.48
64668;BME280;51077;42.716;23.344;2022-11-04T15:15:33;94888.75;;;21.64;35.97
64668;BME280;51077;42.716;23.344;2022-11-04T15:18:21;94891.16;;;21.48;36.05
64668;BME280;51077;42.716;23.344;2022-11-04T15:20:51;94898.56;;;21.34;36.29
64668;BME280;51077;42.716;23.344;2022-11-04T15:23:28;94895.75;;;21.24;36.70
64668;BME280;51077;42.716;23.344;2022-11-04T15:25:55;94892.44;;;21.16;36.87